sensor_id;sensor_type;location;lat;lon;timestamp;P1;durP1;ratioP1;P2;durP2;ratioP2
85160;SDS011;75526;43.726;4.346;2024-03-07T00:01:38;6.43;;;2.97;;
85160;SDS011;75526;43.726;4.346;2024-03-07T00:04:04;4.95;;;2.45;;
85160;SDS011;75526;43.726;4.346;2024-03-07T00:06:31;7.82;;;3.58;;
85160;SDS011;75526;43.726;4.346;2024-03-07T00:08:57;9.10;;;5.30;;
85160;SDS011;75526;43.726;4.346;2024-03-07T00:11:23;6.38;;;3.85;;
85160;SDS011;75526;43.726;4.346;2024-03-07T00:13:49;5.25;;;2.70;;
85160;SDS011;75526;43.726;4.346;2024-03-07T00:16:15;7.68;;;3.08;;
85160;SDS011;75526;43.726;4.346;2024-03-07T00:18:41;10.57;;;4.75;;
85160;SDS011;75526;43.726;4.346;2024-03-07T00:21:07;10.27;;;4.80;;
85160;SDS011;75526;43.726;4.346;2024-03-07T00:23:33;8.45;;;4.03;;
85160;SDS011;75526;43.726;4.346;2024-03-07T00:25:59;5.50;;;2.88;;
85160;SDS011;75526;43.726;4.346;2024-03-07T00:28:27;5.57;;;2.88;;
85160;SDS011;75526;43.726;4.346;2024-03-07T00:30:57;12.40;;;5.13;;
85160;SDS011;75526;43.726;4.346;2024-03-07T00:33:23;8.53;;;4.07;;
85160;SDS011;75526;43.726;4.346;2024-03-07T00:35:50;9.48;;;3.92;;
85160;SDS011;75526;43.726;4.346;2024-03-07T00:38:16;8.38;;;3.10;;
85160;SDS011;75526;43.726;4.346;2024-03-07T00:40:42;6.15;;;2.75;;
85160;SDS011;75526;43.726;4.346;2024-03-07T00:43:08;5.55;;;2.47;;
85160;SDS011;75526;43.726;4.346;2024-03-07T00:45:34;6.30;;;2.37;;
85160;SDS011;75526;43.726;4.346;2024-03-07T00:48:00;8.15;;;2.95;;
85160;SDS011;75526;43.726;4.346;2024-03-07T00:50:26;6.00;;;3.35;;
85160;SDS011;75526;43.726;4.346;2024-03-07T00:52:52;7.35;;;3.00;;
85160;SDS011;75526;43.726;4.346;2024-03-07T00:55:18;8.77;;;3.60;;
85160;SDS011;75526;43.726;4.346;2024-03-07T00:57:44;9.50;;;3.93;;
85160;SDS011;75526;43.726;4.346;2024-03-07T01:00:11;13.77;;;5.03;;
85160;SDS011;75526;43.726;4.346;2024-03-07T01:02:42;9.40;;;4.20;;
85160;SDS011;75526;43.726;4.346;2024-03-07T01:05:09;9.07;;;3.75;;
85160;SDS011;75526;43.726;4.346;2024-03-07T01:07:35;9.43;;;4.10;;
85160;SDS011;75526;43.726;4.346;2024-03-07T01:10:02;10.33;;;3.90;;
85160;SDS011;75526;43.726;4.346;2024-03-07T01:12:31;9.57;;;3.42;;
85160;SDS011;75526;43.726;4.346;2024-03-07T01:14:59;7.78;;;3.50;;
85160;SDS011;75526;43.726;4.346;2024-03-07T01:17:25;6.93;;;3.03;;
85160;SDS011;75526;43.726;4.346;2024-03-07T01:19:51;5.13;;;2.78;;
85160;SDS011;75526;43.726;4.346;2024-03-07T01:22:17;4.67;;;2.50;;
85160;SDS011;75526;43.726;4.346;2024-03-07T01:24:44;6.82;;;2.80;;
85160;SDS011;75526;43.726;4.346;2024-03-07T01:27:10;5.43;;;2.70;;
85160;SDS011;75526;43.726;4.346;2024-03-07T01:29:36;5.03;;;2.50;;
85160;SDS011;75526;43.726;4.346;2024-03-07T01:32:02;6.40;;;2.80;;
85160;SDS011;75526;43.726;4.346;2024-03-07T01:34:28;5.93;;;2.60;;
85160;SDS011;75526;43.726;4.346;2024-03-07T01:36:54;5.53;;;2.45;;
85160;SDS011;75526;43.726;4.346;2024-03-07T01:39:20;7.47;;;2.90;;
85160;SDS011;75526;43.726;4.346;2024-03-07T01:41:46;6.40;;;2.78;;
85160;SDS011;75526;43.726;4.346;2024-03-07T01:44:13;4.40;;;2.60;;
85160;SDS011;75526;43.726;4.346;2024-03-07T01:46:39;5.93;;;2.80;;
85160;SDS011;75526;43.726;4.346;2024-03-07T01:49:06;6.40;;;2.88;;
85160;SDS011;75526;43.726;4.346;2024-03-07T01:51:33;6.18;;;2.95;;
85160;SDS011;75526;43.726;4.346;2024-03-07T01:53:59;5.57;;;2.67;;
85160;SDS011;75526;43.726;4.346;2024-03-07T01:56:25;5.90;;;3.03;;
85160;SDS011;75526;43.726;4.346;2024-03-07T01:58:52;5.70;;;2.80;;
85160;SDS011;75526;43.726;4.346;2024-03-07T02:01:19;5.38;;;2.88;;
85160;SDS011;75526;43.726;4.346;2024-03-07T02:03:45;5.35;;;2.72;;
85160;SDS011;75526;43.726;4.346;2024-03-07T02:06:11;6.70;;;2.80;;
85160;SDS011;75526;43.726;4.346;2024-03-07T02:08:37;4.93;;;2.38;;
85160;SDS011;75526;43.726;4.346;2024-03-07T02:11:03;5.40;;;2.60;;
85160;SDS011;75526;43.726;4.346;2024-03-07T02:13:29;5.05;;;2.63;;
85160;SDS011;75526;43.726;4.346;2024-03-07T02:15:56;4.72;;;2.40;;
85160;SDS011;75526;43.726;4.346;2024-03-07T02:18:23;7.68;;;2.53;;
85160;SDS011;75526;43.726;4.346;2024-03-07T02:20:50;5.43;;;2.40;;
85160;SDS011;75526;43.726;4.346;2024-03-07T02:23:16;5.47;;;2.20;;
85160;SDS011;75526;43.726;4.346;2024-03-07T02:25:42;5.07;;;2.20;;
85160;SDS011;75526;43.726;4.346;2024-03-07T02:28:11;5.22;;;2.30;;
85160;SDS011;75526;43.726;4.346;2024-03-07T02:30:37;4.43;;;2.10;;
85160;SDS011;75526;43.726;4.346;2024-03-07T02:33:03;5.85;;;2.70;;
85160;SDS011;75526;43.726;4.346;2024-03-07T02:35:33;5.77;;;2.30;;
85160;SDS011;75526;43.726;4.346;2024-03-07T02:38:00;7.32;;;2.83;;
85160;SDS011;75526;43.726;4.346;2024-03-07T02:40:26;6.75;;;2.80;;
85160;SDS011;75526;43.726;4.346;2024-03-07T02:42:52;5.80;;;2.40;;
85160;SDS011;75526;43.726;4.346;2024-03-07T02:45:18;5.10;;;2.60;;
85160;SDS011;75526;43.726;4.346;2024-03-07T02:47:44;5.97;;;2.60;;
85160;SDS011;75526;43.726;4.346;2024-03-07T02:50:10;6.13;;;2.60;;
85160;SDS011;75526;43.726;4.346;2024-03-07T02:52:37;5.75;;;2.80;;
85160;SDS011;75526;43.726;4.346;2024-03-07T02:55:04;7.43;;;2.63;;
85160;SDS011;75526;43.726;4.346;2024-03-07T02:57:30;5.10;;;2.20;;
85160;SDS011;75526;43.726;4.346;2024-03-07T02:59:56;6.33;;;2.50;;
85160;SDS011;75526;43.726;4.346;2024-03-07T03:02:22;6.75;;;2.72;;
85160;SDS011;75526;43.726;4.346;2024-03-07T03:04:48;7.45;;;3.00;;
85160;SDS011;75526;43.726;4.346;2024-03-07T03:07:14;5.15;;;2.30;;
85160;SDS011;75526;43.726;4.346;2024-03-07T03:09:40;4.93;;;2.15;;
85160;SDS011;75526;43.726;4.346;2024-03-07T03:12:11;5.60;;;2.10;;
85160;SDS011;75526;43.726;4.346;2024-03-07T03:14:37;6.75;;;2.38;;
85160;SDS011;75526;43.726;4.346;2024-03-07T03:17:03;4.93;;;2.25;;
85160;SDS011;75526;43.726;4.346;2024-03-07T03:19:29;5.35;;;2.10;;
85160;SDS011;75526;43.726;4.346;2024-03-07T03:21:55;4.20;;;2.10;;
85160;SDS011;75526;43.726;4.346;2024-03-07T03:24:21;3.97;;;1.90;;
85160;SDS011;75526;43.726;4.346;2024-03-07T03:26:47;5.45;;;1.85;;
85160;SDS011;75526;43.726;4.346;2024-03-07T03:29:13;3.65;;;1.70;;
85160;SDS011;75526;43.726;4.346;2024-03-07T03:31:41;5.40;;;1.70;;
85160;SDS011;75526;43.726;4.346;2024-03-07T03:34:07;3.78;;;1.55;;
85160;SDS011;75526;43.726;4.346;2024-03-07T03:36:34;4.23;;;1.77;;
85160;SDS011;75526;43.726;4.346;2024-03-07T03:39:00;4.75;;;1.58;;
85160;SDS011;75526;43.726;4.346;2024-03-07T03:41:26;3.45;;;1.60;;
85160;SDS011;75526;43.726;4.346;2024-03-07T03:43:52;5.00;;;1.48;;
85160;SDS011;75526;43.726;4.346;2024-03-07T03:46:18;4.93;;;1.70;;
85160;SDS011;75526;43.726;4.346;2024-03-07T03:48:44;4.17;;;1.50;;
85160;SDS011;75526;43.726;4.346;2024-03-07T03:51:10;4.30;;;1.58;;
85160;SDS011;75526;43.726;4.346;2024-03-07T03:53:38;3.30;;;1.55;;
85160;SDS011;75526;43.726;4.346;2024-03-07T03:56:04;4.32;;;1.52;;
85160;SDS011;75526;43.726;4.346;2024-03-07T03:58:31;3.45;;;1.70;;
85160;SDS011;75526;43.726;4.346;2024-03-07T04:00:57;3.13;;;1.60;;
85160;SDS011;75526;43.726;4.346;2024-03-07T04:03:26;4.38;;;1.50;;
85160;SDS011;75526;43.726;4.346;2024-03-07T04:05:52;3.72;;;1.45;;
85160;SDS011;75526;43.726;4.346;2024-03-07T04:08:18;5.20;;;1.58;;
85160;SDS011;75526;43.726;4.346;2024-03-07T04:10:45;5.35;;;2.17;;
85160;SDS011;75526;43.726;4.346;2024-03-07T04:13:11;4.33;;;1.70;;
85160;SDS011;75526;43.726;4.346;2024-03-07T04:15:38;8.10;;;3.40;;
85160;SDS011;75526;43.726;4.346;2024-03-07T04:18:04;5.50;;;2.50;;
85160;SDS011;75526;43.726;4.346;2024-03-07T04:20:30;5.55;;;2.05;;
85160;SDS011;75526;43.726;4.346;2024-03-07T04:22:56;4.95;;;1.95;;
85160;SDS011;75526;43.726;4.346;2024-03-07T04:25:22;7.37;;;2.37;;
85160;SDS011;75526;43.726;4.346;2024-03-07T04:27:50;4.60;;;1.80;;
85160;SDS011;75526;43.726;4.346;2024-03-07T04:30:16;6.25;;;1.70;;
85160;SDS011;75526;43.726;4.346;2024-03-07T04:32:42;5.22;;;1.90;;
85160;SDS011;75526;43.726;4.346;2024-03-07T04:35:08;4.57;;;1.90;;
85160;SDS011;75526;43.726;4.346;2024-03-07T04:37:35;7.40;;;2.50;;
85160;SDS011;75526;43.726;4.346;2024-03-07T04:40:08;5.85;;;2.20;;
85160;SDS011;75526;43.726;4.346;2024-03-07T04:42:47;4.22;;;1.88;;
85160;SDS011;75526;43.726;4.346;2024-03-07T04:45:14;4.82;;;2.10;;
85160;SDS011;75526;43.726;4.346;2024-03-07T04:47:43;4.30;;;2.05;;
85160;SDS011;75526;43.726;4.346;2024-03-07T04:50:10;5.23;;;2.00;;
85160;SDS011;75526;43.726;4.346;2024-03-07T04:52:39;4.32;;;2.10;;
85160;SDS011;75526;43.726;4.346;2024-03-07T04:55:05;6.63;;;2.20;;
85160;SDS011;75526;43.726;4.346;2024-03-07T04:57:40;4.57;;;2.22;;
85160;SDS011;75526;43.726;4.346;2024-03-07T05:00:07;4.70;;;2.20;;
85160;SDS011;75526;43.726;4.346;2024-03-07T05:02:39;5.37;;;2.20;;
85160;SDS011;75526;43.726;4.346;2024-03-07T05:05:05;4.55;;;2.33;;
85160;SDS011;75526;43.726;4.346;2024-03-07T05:07:31;6.07;;;2.53;;
85160;SDS011;75526;43.726;4.346;2024-03-07T05:09:57;5.45;;;2.33;;
85160;SDS011;75526;43.726;4.346;2024-03-07T05:12:23;4.88;;;2.35;;
85160;SDS011;75526;43.726;4.346;2024-03-07T05:14:49;5.27;;;2.20;;
85160;SDS011;75526;43.726;4.346;2024-03-07T05:17:15;5.35;;;2.30;;
85160;SDS011;75526;43.726;4.346;2024-03-07T05:19:44;5.30;;;2.40;;
85160;SDS011;75526;43.726;4.346;2024-03-07T05:22:11;6.13;;;2.80;;
85160;SDS011;75526;43.726;4.346;2024-03-07T05:24:40;5.47;;;2.60;;
85160;SDS011;75526;43.726;4.346;2024-03-07T05:27:07;5.57;;;2.37;;
85160;SDS011;75526;43.726;4.346;2024-03-07T05:29:36;7.70;;;3.70;;
85160;SDS011;75526;43.726;4.346;2024-03-07T05:32:19;10.30;;;4.80;;
85160;SDS011;75526;43.726;4.346;2024-03-07T05:34:46;10.82;;;6.30;;
85160;SDS011;75526;43.726;4.346;2024-03-07T05:37:12;8.52;;;5.78;;
85160;SDS011;75526;43.726;4.346;2024-03-07T05:39:38;9.47;;;5.40;;
85160;SDS011;75526;43.726;4.346;2024-03-07T05:42:04;9.38;;;5.00;;
85160;SDS011;75526;43.726;4.346;2024-03-07T05:44:32;8.18;;;4.50;;
85160;SDS011;75526;43.726;4.346;2024-03-07T05:46:58;8.90;;;4.65;;
85160;SDS011;75526;43.726;4.346;2024-03-07T05:49:24;8.05;;;3.80;;
85160;SDS011;75526;43.726;4.346;2024-03-07T05:51:50;7.10;;;3.70;;
85160;SDS011;75526;43.726;4.346;2024-03-07T05:54:16;10.15;;;3.95;;
85160;SDS011;75526;43.726;4.346;2024-03-07T05:56:42;10.82;;;4.90;;
85160;SDS011;75526;43.726;4.346;2024-03-07T05:59:08;8.98;;;5.47;;
85160;SDS011;75526;43.726;4.346;2024-03-07T06:01:38;11.52;;;5.70;;
85160;SDS011;75526;43.726;4.346;2024-03-07T06:04:05;10.13;;;6.20;;
85160;SDS011;75526;43.726;4.346;2024-03-07T06:06:34;10.23;;;6.10;;
85160;SDS011;75526;43.726;4.346;2024-03-07T06:09:04;9.88;;;5.75;;
85160;SDS011;75526;43.726;4.346;2024-03-07T06:11:36;11.65;;;5.97;;
85160;SDS011;75526;43.726;4.346;2024-03-07T06:14:02;13.63;;;6.13;;
85160;SDS011;75526;43.726;4.346;2024-03-07T06:16:37;11.60;;;6.57;;
85160;SDS011;75526;43.726;4.346;2024-03-07T06:19:05;22.85;;;11.02;;
85160;SDS011;75526;43.726;4.346;2024-03-07T06:21:35;19.38;;;11.00;;
85160;SDS011;75526;43.726;4.346;2024-03-07T06:24:01;17.88;;;9.20;;
85160;SDS011;75526;43.726;4.346;2024-03-07T06:26:33;14.55;;;8.73;;
85160;SDS011;75526;43.726;4.346;2024-03-07T06:29:16;13.73;;;7.20;;
85160;SDS011;75526;43.726;4.346;2024-03-07T06:31:42;11.80;;;7.32;;
85160;SDS011;75526;43.726;4.346;2024-03-07T06:34:11;8.40;;;5.13;;
85160;SDS011;75526;43.726;4.346;2024-03-07T06:36:38;9.35;;;5.20;;
85160;SDS011;75526;43.726;4.346;2024-03-07T06:39:05;9.50;;;4.10;;
85160;SDS011;75526;43.726;4.346;2024-03-07T06:41:34;5.80;;;2.80;;
85160;SDS011;75526;43.726;4.346;2024-03-07T06:44:00;5.57;;;2.60;;
85160;SDS011;75526;43.726;4.346;2024-03-07T06:46:26;4.80;;;2.03;;
85160;SDS011;75526;43.726;4.346;2024-03-07T06:48:53;3.45;;;1.50;;
85160;SDS011;75526;43.726;4.346;2024-03-07T06:51:19;4.55;;;2.10;;
85160;SDS011;75526;43.726;4.346;2024-03-07T06:53:45;3.97;;;1.63;;
85160;SDS011;75526;43.726;4.346;2024-03-07T06:56:15;5.93;;;1.85;;
85160;SDS011;75526;43.726;4.346;2024-03-07T06:58:41;5.07;;;1.92;;
85160;SDS011;75526;43.726;4.346;2024-03-07T07:01:07;4.35;;;2.00;;
85160;SDS011;75526;43.726;4.346;2024-03-07T07:03:36;5.47;;;2.10;;
85160;SDS011;75526;43.726;4.346;2024-03-07T07:06:02;4.37;;;1.90;;
85160;SDS011;75526;43.726;4.346;2024-03-07T07:08:31;6.40;;;2.10;;
85160;SDS011;75526;43.726;4.346;2024-03-07T07:10:57;5.22;;;1.98;;
85160;SDS011;75526;43.726;4.346;2024-03-07T07:13:23;5.57;;;2.00;;
85160;SDS011;75526;43.726;4.346;2024-03-07T07:15:49;5.47;;;2.00;;
85160;SDS011;75526;43.726;4.346;2024-03-07T07:18:16;4.77;;;1.80;;
85160;SDS011;75526;43.726;4.346;2024-03-07T07:20:42;4.80;;;2.03;;
85160;SDS011;75526;43.726;4.346;2024-03-07T07:23:08;3.92;;;2.00;;
85160;SDS011;75526;43.726;4.346;2024-03-07T07:25:34;4.82;;;1.92;;
85160;SDS011;75526;43.726;4.346;2024-03-07T07:28:00;6.43;;;1.95;;
85160;SDS011;75526;43.726;4.346;2024-03-07T07:30:29;6.07;;;2.00;;
85160;SDS011;75526;43.726;4.346;2024-03-07T07:32:55;4.97;;;2.00;;
85160;SDS011;75526;43.726;4.346;2024-03-07T07:35:22;4.95;;;2.10;;
85160;SDS011;75526;43.726;4.346;2024-03-07T07:37:49;5.43;;;1.98;;
85160;SDS011;75526;43.726;4.346;2024-03-07T07:40:17;4.43;;;2.00;;
85160;SDS011;75526;43.726;4.346;2024-03-07T07:42:44;4.73;;;2.00;;
85160;SDS011;75526;43.726;4.346;2024-03-07T07:45:12;7.18;;;2.05;;
85160;SDS011;75526;43.726;4.346;2024-03-07T07:47:42;5.10;;;2.30;;
85160;SDS011;75526;43.726;4.346;2024-03-07T07:50:08;5.38;;;2.10;;
85160;SDS011;75526;43.726;4.346;2024-03-07T07:52:42;5.55;;;2.22;;
85160;SDS011;75526;43.726;4.346;2024-03-07T07:55:08;4.93;;;1.97;;
85160;SDS011;75526;43.726;4.346;2024-03-07T07:57:40;7.32;;;2.50;;
85160;SDS011;75526;43.726;4.346;2024-03-07T08:00:07;5.65;;;2.45;;
85160;SDS011;75526;43.726;4.346;2024-03-07T08:02:34;5.78;;;2.20;;
85160;SDS011;75526;43.726;4.346;2024-03-07T08:05:01;5.22;;;2.28;;
85160;SDS011;75526;43.726;4.346;2024-03-07T08:07:30;4.77;;;2.30;;
85160;SDS011;75526;43.726;4.346;2024-03-07T08:09:56;7.60;;;2.40;;
85160;SDS011;75526;43.726;4.346;2024-03-07T08:12:22;5.85;;;2.47;;
85160;SDS011;75526;43.726;4.346;2024-03-07T08:14:48;5.53;;;2.25;;
85160;SDS011;75526;43.726;4.346;2024-03-07T08:17:14;4.63;;;2.00;;
85160;SDS011;75526;43.726;4.346;2024-03-07T08:19:40;5.93;;;2.50;;
85160;SDS011;75526;43.726;4.346;2024-03-07T08:22:06;14.00;;;3.58;;
85160;SDS011;75526;43.726;4.346;2024-03-07T08:24:32;6.35;;;2.40;;
85160;SDS011;75526;43.726;4.346;2024-03-07T08:26:58;6.10;;;2.28;;
85160;SDS011;75526;43.726;4.346;2024-03-07T08:29:24;6.00;;;2.47;;
85160;SDS011;75526;43.726;4.346;2024-03-07T08:31:50;4.07;;;2.20;;
85160;SDS011;75526;43.726;4.346;2024-03-07T08:34:16;6.18;;;2.42;;
85160;SDS011;75526;43.726;4.346;2024-03-07T08:36:42;7.40;;;3.05;;
85160;SDS011;75526;43.726;4.346;2024-03-07T08:39:08;6.72;;;2.72;;
85160;SDS011;75526;43.726;4.346;2024-03-07T08:41:36;5.30;;;2.78;;
85160;SDS011;75526;43.726;4.346;2024-03-07T08:44:06;8.20;;;3.20;;
85160;SDS011;75526;43.726;4.346;2024-03-07T08:46:32;7.57;;;3.20;;
85160;SDS011;75526;43.726;4.346;2024-03-07T08:48:58;8.70;;;2.70;;
85160;SDS011;75526;43.726;4.346;2024-03-07T08:51:24;7.35;;;2.75;;
85160;SDS011;75526;43.726;4.346;2024-03-07T08:53:50;6.57;;;2.70;;
85160;SDS011;75526;43.726;4.346;2024-03-07T08:56:16;6.60;;;2.60;;
85160;SDS011;75526;43.726;4.346;2024-03-07T08:58:42;5.55;;;2.40;;
85160;SDS011;75526;43.726;4.346;2024-03-07T09:01:08;6.80;;;2.63;;
85160;SDS011;75526;43.726;4.346;2024-03-07T09:03:34;6.72;;;2.50;;
85160;SDS011;75526;43.726;4.346;2024-03-07T09:06:01;5.03;;;2.58;;
85160;SDS011;75526;43.726;4.346;2024-03-07T09:08:29;5.13;;;2.40;;
85160;SDS011;75526;43.726;4.346;2024-03-07T09:10:55;6.80;;;2.70;;
85160;SDS011;75526;43.726;4.346;2024-03-07T09:13:21;7.65;;;3.05;;
85160;SDS011;75526;43.726;4.346;2024-03-07T09:15:47;7.20;;;3.20;;
85160;SDS011;75526;43.726;4.346;2024-03-07T09:18:13;5.55;;;2.13;;
85160;SDS011;75526;43.726;4.346;2024-03-07T09:20:40;8.43;;;3.47;;
85160;SDS011;75526;43.726;4.346;2024-03-07T09:23:06;6.50;;;3.35;;
85160;SDS011;75526;43.726;4.346;2024-03-07T09:25:32;8.95;;;3.70;;
85160;SDS011;75526;43.726;4.346;2024-03-07T09:27:59;8.60;;;3.33;;
85160;SDS011;75526;43.726;4.346;2024-03-07T09:30:25;7.65;;;2.75;;
85160;SDS011;75526;43.726;4.346;2024-03-07T09:32:53;7.37;;;3.70;;
85160;SDS011;75526;43.726;4.346;2024-03-07T09:35:22;8.75;;;3.20;;
85160;SDS011;75526;43.726;4.346;2024-03-07T09:37:48;6.70;;;2.83;;
85160;SDS011;75526;43.726;4.346;2024-03-07T09:40:14;6.43;;;2.95;;
85160;SDS011;75526;43.726;4.346;2024-03-07T09:42:44;10.05;;;3.67;;
85160;SDS011;75526;43.726;4.346;2024-03-07T09:45:14;9.70;;;4.17;;
85160;SDS011;75526;43.726;4.346;2024-03-07T09:47:47;8.27;;;3.65;;
85160;SDS011;75526;43.726;4.346;2024-03-07T09:50:16;8.82;;;3.60;;
85160;SDS011;75526;43.726;4.346;2024-03-07T09:52:44;8.52;;;3.30;;
85160;SDS011;75526;43.726;4.346;2024-03-07T09:55:11;10.60;;;4.72;;
85160;SDS011;75526;43.726;4.346;2024-03-07T09:57:38;6.63;;;2.60;;
85160;SDS011;75526;43.726;4.346;2024-03-07T10:00:05;6.63;;;2.55;;
85160;SDS011;75526;43.726;4.346;2024-03-07T10:02:31;6.50;;;2.78;;
85160;SDS011;75526;43.726;4.346;2024-03-07T10:04:58;6.10;;;2.53;;
85160;SDS011;75526;43.726;4.346;2024-03-07T10:07:25;4.72;;;2.63;;
85160;SDS011;75526;43.726;4.346;2024-03-07T10:09:52;7.23;;;2.50;;
85160;SDS011;75526;43.726;4.346;2024-03-07T10:12:21;5.70;;;2.80;;
85160;SDS011;75526;43.726;4.346;2024-03-07T10:14:48;6.93;;;2.70;;
85160;SDS011;75526;43.726;4.346;2024-03-07T10:17:16;5.80;;;2.72;;
85160;SDS011;75526;43.726;4.346;2024-03-07T10:19:42;6.93;;;3.25;;
85160;SDS011;75526;43.726;4.346;2024-03-07T10:22:08;6.73;;;3.37;;
85160;SDS011;75526;43.726;4.346;2024-03-07T10:24:34;8.05;;;3.58;;
85160;SDS011;75526;43.726;4.346;2024-03-07T10:27:00;6.47;;;3.40;;
85160;SDS011;75526;43.726;4.346;2024-03-07T10:29:26;6.97;;;3.30;;
85160;SDS011;75526;43.726;4.346;2024-03-07T10:31:52;6.55;;;3.00;;
85160;SDS011;75526;43.726;4.346;2024-03-07T10:34:18;5.97;;;2.93;;
85160;SDS011;75526;43.726;4.346;2024-03-07T10:36:45;6.18;;;3.10;;
85160;SDS011;75526;43.726;4.346;2024-03-07T10:39:11;4.25;;;2.33;;
85160;SDS011;75526;43.726;4.346;2024-03-07T10:41:50;5.43;;;1.70;;
85160;SDS011;75526;43.726;4.346;2024-03-07T10:44:19;3.97;;;1.90;;
85160;SDS011;75526;43.726;4.346;2024-03-07T10:46:52;4.23;;;2.17;;
85160;SDS011;75526;43.726;4.346;2024-03-07T10:49:19;6.63;;;2.53;;
85160;SDS011;75526;43.726;4.346;2024-03-07T10:51:51;6.72;;;2.30;;
85160;SDS011;75526;43.726;4.346;2024-03-07T10:57:16;6.28;;;2.85;;
85160;SDS011;75526;43.726;4.346;2024-03-07T10:59:52;6.33;;;2.90;;
85160;SDS011;75526;43.726;4.346;2024-03-07T11:04:55;7.80;;;3.90;;
85160;SDS011;75526;43.726;4.346;2024-03-07T11:07:22;7.25;;;3.58;;
85160;SDS011;75526;43.726;4.346;2024-03-07T11:09:52;7.60;;;4.03;;
85160;SDS011;75526;43.726;4.346;2024-03-07T11:12:23;7.93;;;4.10;;
85160;SDS011;75526;43.726;4.346;2024-03-07T11:14:50;9.75;;;4.15;;
85160;SDS011;75526;43.726;4.346;2024-03-07T11:17:17;7.75;;;3.70;;
85160;SDS011;75526;43.726;4.346;2024-03-07T11:19:44;10.90;;;4.43;;
85160;SDS011;75526;43.726;4.346;2024-03-07T11:22:13;9.10;;;4.47;;
85160;SDS011;75526;43.726;4.346;2024-03-07T11:25:03;8.43;;;4.00;;
85160;SDS011;75526;43.726;4.346;2024-03-07T11:27:36;7.80;;;3.90;;
85160;SDS011;75526;43.726;4.346;2024-03-07T11:30:04;7.03;;;3.50;;
85160;SDS011;75526;43.726;4.346;2024-03-07T11:32:34;7.65;;;3.53;;
85160;SDS011;75526;43.726;4.346;2024-03-07T11:35:03;5.93;;;3.20;;
85160;SDS011;75526;43.726;4.346;2024-03-07T11:37:39;6.87;;;3.27;;
85160;SDS011;75526;43.726;4.346;2024-03-07T11:40:09;7.85;;;3.33;;
85160;SDS011;75526;43.726;4.346;2024-03-07T11:42:43;4.95;;;2.70;;
85160;SDS011;75526;43.726;4.346;2024-03-07T11:45:11;5.97;;;3.30;;
85160;SDS011;75526;43.726;4.346;2024-03-07T11:47:45;8.50;;;3.92;;
85160;SDS011;75526;43.726;4.346;2024-03-07T11:50:11;5.97;;;3.10;;
85160;SDS011;75526;43.726;4.346;2024-03-07T11:52:38;5.30;;;2.80;;
85160;SDS011;75526;43.726;4.346;2024-03-07T11:55:07;5.88;;;2.97;;
85160;SDS011;75526;43.726;4.346;2024-03-07T11:57:33;5.25;;;2.50;;
85160;SDS011;75526;43.726;4.346;2024-03-07T12:00:00;5.97;;;2.92;;
85160;SDS011;75526;43.726;4.346;2024-03-07T12:02:33;6.30;;;2.70;;
85160;SDS011;75526;43.726;4.346;2024-03-07T12:04:59;5.82;;;2.70;;
85160;SDS011;75526;43.726;4.346;2024-03-07T12:07:25;3.80;;;2.20;;
85160;SDS011;75526;43.726;4.346;2024-03-07T12:09:52;4.13;;;2.20;;
85160;SDS011;75526;43.726;4.346;2024-03-07T12:12:21;4.63;;;2.50;;
85160;SDS011;75526;43.726;4.346;2024-03-07T12:14:50;4.90;;;2.50;;
85160;SDS011;75526;43.726;4.346;2024-03-07T12:17:19;4.85;;;2.25;;
85160;SDS011;75526;43.726;4.346;2024-03-07T12:19:46;4.53;;;2.20;;
85160;SDS011;75526;43.726;4.346;2024-03-07T12:22:12;4.70;;;1.92;;
85160;SDS011;75526;43.726;4.346;2024-03-07T12:24:39;4.13;;;1.65;;
85160;SDS011;75526;43.726;4.346;2024-03-07T12:27:06;4.10;;;1.93;;
85160;SDS011;75526;43.726;4.346;2024-03-07T12:29:34;4.53;;;2.05;;
85160;SDS011;75526;43.726;4.346;2024-03-07T12:32:01;4.70;;;1.80;;
85160;SDS011;75526;43.726;4.346;2024-03-07T12:34:27;6.47;;;2.05;;
85160;SDS011;75526;43.726;4.346;2024-03-07T12:36:55;4.70;;;1.95;;
85160;SDS011;75526;43.726;4.346;2024-03-07T12:39:24;4.23;;;2.20;;
85160;SDS011;75526;43.726;4.346;2024-03-07T12:41:55;4.78;;;2.35;;
85160;SDS011;75526;43.726;4.346;2024-03-07T12:44:21;4.35;;;2.33;;
85160;SDS011;75526;43.726;4.346;2024-03-07T12:46:48;5.63;;;2.40;;
85160;SDS011;75526;43.726;4.346;2024-03-07T12:49:14;4.25;;;2.03;;
85160;SDS011;75526;43.726;4.346;2024-03-07T12:51:41;4.20;;;2.40;;
85160;SDS011;75526;43.726;4.346;2024-03-07T12:54:07;7.07;;;2.35;;
85160;SDS011;75526;43.726;4.346;2024-03-07T12:56:35;4.38;;;2.38;;
85160;SDS011;75526;43.726;4.346;2024-03-07T12:59:02;5.10;;;2.63;;
85160;SDS011;75526;43.726;4.346;2024-03-07T13:01:29;5.22;;;2.40;;
85160;SDS011;75526;43.726;4.346;2024-03-07T13:03:58;5.50;;;2.57;;
85160;SDS011;75526;43.726;4.346;2024-03-07T13:06:24;4.43;;;2.50;;
85160;SDS011;75526;43.726;4.346;2024-03-07T13:08:54;5.82;;;2.47;;
85160;SDS011;75526;43.726;4.346;2024-03-07T13:11:22;4.95;;;2.40;;
85160;SDS011;75526;43.726;4.346;2024-03-07T13:13:48;5.90;;;2.40;;
85160;SDS011;75526;43.726;4.346;2024-03-07T13:16:14;5.63;;;3.00;;
85160;SDS011;75526;43.726;4.346;2024-03-07T13:18:40;6.88;;;3.42;;
85160;SDS011;75526;43.726;4.346;2024-03-07T13:21:07;5.50;;;2.92;;
85160;SDS011;75526;43.726;4.346;2024-03-07T13:23:35;6.32;;;3.38;;
85160;SDS011;75526;43.726;4.346;2024-03-07T13:26:04;8.13;;;3.70;;
85160;SDS011;75526;43.726;4.346;2024-03-07T13:28:36;8.67;;;3.67;;
85160;SDS011;75526;43.726;4.346;2024-03-07T13:31:02;6.00;;;2.40;;
85160;SDS011;75526;43.726;4.346;2024-03-07T13:33:28;4.10;;;1.25;;
85160;SDS011;75526;43.726;4.346;2024-03-07T13:35:54;5.85;;;1.77;;
85160;SDS011;75526;43.726;4.346;2024-03-07T13:38:21;4.90;;;1.50;;
85160;SDS011;75526;43.726;4.346;2024-03-07T13:40:47;3.07;;;1.20;;
85160;SDS011;75526;43.726;4.346;2024-03-07T13:43:14;3.60;;;1.20;;
85160;SDS011;75526;43.726;4.346;2024-03-07T13:45:40;3.65;;;1.15;;
85160;SDS011;75526;43.726;4.346;2024-03-07T13:48:09;3.90;;;1.30;;
85160;SDS011;75526;43.726;4.346;2024-03-07T13:50:38;4.45;;;1.60;;
85160;SDS011;75526;43.726;4.346;2024-03-07T13:53:09;4.67;;;1.63;;
85160;SDS011;75526;43.726;4.346;2024-03-07T14:00:56;4.22;;;1.30;;
85160;SDS011;75526;43.726;4.346;2024-03-07T14:05:58;4.00;;;1.10;;
85160;SDS011;75526;43.726;4.346;2024-03-07T14:13:34;4.05;;;1.25;;
85160;SDS011;75526;43.726;4.346;2024-03-07T14:32:19;7.10;;;1.33;;
85160;SDS011;75526;43.726;4.346;2024-03-07T14:34:47;4.95;;;1.55;;
85160;SDS011;75526;43.726;4.346;2024-03-07T14:37:23;7.15;;;1.60;;
85160;SDS011;75526;43.726;4.346;2024-03-07T14:39:50;6.30;;;1.48;;
85160;SDS011;75526;43.726;4.346;2024-03-07T14:42:17;4.00;;;1.00;;
85160;SDS011;75526;43.726;4.346;2024-03-07T14:44:44;4.53;;;1.30;;
85160;SDS011;75526;43.726;4.346;2024-03-07T14:47:13;4.88;;;1.20;;
85160;SDS011;75526;43.726;4.346;2024-03-07T14:49:40;5.40;;;1.30;;
85160;SDS011;75526;43.726;4.346;2024-03-07T14:52:07;4.18;;;1.30;;
85160;SDS011;75526;43.726;4.346;2024-03-07T14:54:37;4.10;;;1.10;;
85160;SDS011;75526;43.726;4.346;2024-03-07T14:57:03;3.50;;;1.20;;
85160;SDS011;75526;43.726;4.346;2024-03-07T14:59:30;4.97;;;1.20;;
85160;SDS011;75526;43.726;4.346;2024-03-07T15:01:56;4.05;;;1.00;;
85160;SDS011;75526;43.726;4.346;2024-03-07T15:04:23;4.93;;;1.10;;
85160;SDS011;75526;43.726;4.346;2024-03-07T15:06:49;4.30;;;1.00;;
85160;SDS011;75526;43.726;4.346;2024-03-07T15:09:17;6.47;;;1.30;;
85160;SDS011;75526;43.726;4.346;2024-03-07T15:11:44;3.33;;;1.00;;
85160;SDS011;75526;43.726;4.346;2024-03-07T15:14:11;5.40;;;1.10;;
85160;SDS011;75526;43.726;4.346;2024-03-07T15:16:38;7.85;;;2.03;;
85160;SDS011;75526;43.726;4.346;2024-03-07T15:19:05;5.85;;;1.73;;
85160;SDS011;75526;43.726;4.346;2024-03-07T15:21:32;7.93;;;2.00;;